createdAt,value
2023-04-20T00:02:20.562Z,4.13
2023-04-20T00:04:32.104Z,4.50
2023-04-20T00:06:37.316Z,4.00
2023-04-20T00:08:46.317Z,3.70
2023-04-20T00:10:50.348Z,4.20
2023-04-20T00:12:54.260Z,4.10
2023-04-20T00:14:59.078Z,3.83
2023-04-20T00:17:02.863Z,4.27
2023-04-20T00:19:07.393Z,3.63
2023-04-20T00:21:10.923Z,3.80
2023-04-20T00:23:14.746Z,3.90
2023-04-20T00:25:20.079Z,4.23
2023-04-20T00:27:23.703Z,4.03
2023-04-20T00:29:42.669Z,3.80
2023-04-20T00:31:46.230Z,3.93
2023-04-20T00:33:50.055Z,4.20
2023-04-20T00:35:54.256Z,4.00
2023-04-20T00:37:57.953Z,3.87
2023-04-20T00:40:01.692Z,3.83
2023-04-20T00:42:10.253Z,4.33
2023-04-20T00:44:18.787Z,3.60
2023-04-20T00:46:23.084Z,3.77
2023-04-20T00:48:27.159Z,4.00
2023-04-20T00:50:30.955Z,4.30
2023-04-20T00:52:34.746Z,4.40
2023-04-20T00:54:38.454Z,4.33
2023-04-20T00:56:45.781Z,4.23
2023-04-20T00:58:50.805Z,4.50
2023-04-20T01:00:54.382Z,4.40
2023-04-20T01:02:57.867Z,4.77
2023-04-20T01:05:01.809Z,4.20
2023-04-20T01:07:05.892Z,5.03
2023-04-20T01:09:10.300Z,4.70
2023-04-20T01:11:53.044Z,4.97
2023-04-20T01:13:57.937Z,4.97
2023-04-20T01:16:01.404Z,4.80
2023-04-20T01:18:06.171Z,3.70
2023-04-20T01:20:11.717Z,4.93
2023-04-20T01:22:18.869Z,4.70
2023-04-20T01:24:22.283Z,4.40
2023-04-20T01:26:27.121Z,4.63
2023-04-20T01:29:31.736Z,4.40
2023-04-20T01:31:35.362Z,4.80
2023-04-20T01:33:38.831Z,4.27
2023-04-20T01:35:44.251Z,4.77
2023-04-20T01:37:49.230Z,4.50
2023-04-20T01:39:52.717Z,4.83
2023-04-20T01:41:56.680Z,4.80
2023-04-20T01:47:26.114Z,4.33
2023-04-20T01:49:29.683Z,4.40
2023-04-20T01:51:34.011Z,4.03
2023-04-20T01:53:39.375Z,5.07
2023-04-20T01:55:42.917Z,4.47
2023-04-20T01:57:46.557Z,4.30
2023-04-20T01:59:50.503Z,4.30
2023-04-20T02:01:54.391Z,4.83
2023-04-20T02:03:58.114Z,4.80
2023-04-20T02:06:01.670Z,4.83
2023-04-20T02:08:06.017Z,5.30
2023-04-20T02:10:12.126Z,5.00
2023-04-20T02:12:15.974Z,4.40
2023-04-20T02:14:56.048Z,4.40
2023-04-20T02:17:00.672Z,5.00
2023-04-20T02:19:04.184Z,4.50
2023-04-20T02:21:08.314Z,5.27
2023-04-20T02:23:11.834Z,4.70
2023-04-20T02:25:17.818Z,5.50
2023-04-20T02:27:21.403Z,4.83
2023-04-20T02:29:27.450Z,4.77
2023-04-20T02:31:31.349Z,5.67
2023-04-20T02:33:35.112Z,5.40
2023-04-20T02:35:39.226Z,4.77
2023-04-20T02:37:44.355Z,4.90
2023-04-20T02:39:47.927Z,5.30
2023-04-20T02:41:52.923Z,4.90
2023-04-20T02:44:52.970Z,5.50
2023-04-20T02:46:56.723Z,5.43
2023-04-20T02:49:00.868Z,5.37
2023-04-20T02:51:59.677Z,5.57
2023-04-20T02:54:03.707Z,5.87
2023-04-20T02:56:07.328Z,5.70
2023-04-20T02:58:12.396Z,5.57
2023-04-20T03:00:16.922Z,5.37
2023-04-20T03:02:20.547Z,5.80
2023-04-20T03:04:24.175Z,5.67
2023-04-20T03:06:28.080Z,5.50
2023-04-20T03:08:31.645Z,5.93
2023-04-20T03:14:02.724Z,5.20
2023-04-20T03:16:07.335Z,5.13
2023-04-20T03:18:11.453Z,5.27
2023-04-20T03:21:03.048Z,6.00
2023-04-20T03:23:06.504Z,5.37
2023-04-20T03:25:10.684Z,5.40
2023-04-20T03:27:14.541Z,5.50
2023-04-20T03:29:34.354Z,5.20
2023-04-20T03:31:38.120Z,4.87
2023-04-20T03:33:41.686Z,4.80
2023-04-20T03:35:51.392Z,4.90
2023-04-20T03:37:54.886Z,4.53
2023-04-20T03:39:58.693Z,5.10
2023-04-20T03:42:02.072Z,4.50
2023-04-20T03:44:06.822Z,4.80
2023-04-20T03:46:11.895Z,5.03
2023-04-20T03:48:15.491Z,4.67
2023-04-20T03:50:19.095Z,4.70
2023-04-20T03:52:22.650Z,4.60
2023-04-20T03:54:26.403Z,4.23
2023-04-20T03:59:56.020Z,4.40
2023-04-20T04:02:01.940Z,4.97
2023-04-20T04:04:05.776Z,4.90
2023-04-20T04:06:10.492Z,4.70
2023-04-20T04:08:14.039Z,5.20
2023-04-20T04:10:19.291Z,5.17
2023-04-20T04:12:23.206Z,5.03
2023-04-20T04:14:41.165Z,5.40
2023-04-20T04:16:44.978Z,5.07
2023-04-20T04:18:50.131Z,5.13
2023-04-20T04:20:53.716Z,5.37
2023-04-20T04:22:57.859Z,5.23
2023-04-20T04:25:01.566Z,5.53
2023-04-20T04:27:06.331Z,5.53
2023-04-20T04:29:16.460Z,5.13
2023-04-20T04:31:21.914Z,4.77
2023-04-20T04:33:25.550Z,4.77
2023-04-20T04:35:31.569Z,5.23
2023-04-20T04:37:35.182Z,5.47
2023-04-20T04:39:38.786Z,5.13
2023-04-20T04:41:42.462Z,5.67
2023-04-20T04:43:46.015Z,5.37
2023-04-20T04:45:50.107Z,6.40
2023-04-20T04:51:21.412Z,5.80
2023-04-20T04:53:25.146Z,5.83
2023-04-20T04:55:28.790Z,6.23
2023-04-20T04:57:33.516Z,6.10
2023-04-20T04:59:37.623Z,6.60
2023-04-20T05:01:42.147Z,6.50
2023-04-20T05:03:45.875Z,6.73
2023-04-20T05:09:22.594Z,6.50
2023-04-20T05:11:25.975Z,6.97
2023-04-20T05:13:29.500Z,6.67
2023-04-20T05:15:33.242Z,6.47
2023-04-20T05:17:37.199Z,6.43
2023-04-20T05:19:40.763Z,6.17
2023-04-20T05:21:45.758Z,6.00
2023-04-20T05:23:54.726Z,6.30
2023-04-20T05:25:59.979Z,6.27
2023-04-20T05:28:05.320Z,6.47
2023-04-20T05:30:20.572Z,6.50
2023-04-20T05:32:26.097Z,5.80
2023-04-20T05:34:31.584Z,6.90
2023-04-20T05:36:35.394Z,6.27
2023-04-20T05:38:39.459Z,6.53
2023-04-20T05:40:42.979Z,6.43
2023-04-20T05:42:48.379Z,6.47
2023-04-20T05:44:52.187Z,6.43
2023-04-20T05:46:59.142Z,6.27
2023-04-20T05:49:02.843Z,5.73
2023-04-20T05:51:09.343Z,5.90
2023-04-20T05:53:13.004Z,5.83
2023-04-20T05:55:18.914Z,5.40
2023-04-20T05:57:25.208Z,6.17
2023-04-20T05:59:32.028Z,5.77
2023-04-20T06:01:39.102Z,6.03
2023-04-20T06:03:43.153Z,5.80
2023-04-20T06:05:47.322Z,6.17
2023-04-20T06:07:51.054Z,6.40
2023-04-20T06:09:55.024Z,5.83
2023-04-20T06:12:00.403Z,6.27
2023-04-20T06:14:13.712Z,6.37
2023-04-20T06:16:19.165Z,6.37
2023-04-20T06:18:23.027Z,5.80
2023-04-20T06:20:28.111Z,6.20
2023-04-20T06:22:35.569Z,6.20
2023-04-20T06:24:48.237Z,5.80
2023-04-20T06:26:53.178Z,6.43
2023-04-20T06:28:57.383Z,6.57
2023-04-20T06:31:01.138Z,6.13
2023-04-20T06:33:18.313Z,6.23
2023-04-20T06:35:22.896Z,6.33
2023-04-20T06:37:30.024Z,6.17
2023-04-20T06:39:33.689Z,6.63
2023-04-20T06:41:37.972Z,7.03
2023-04-20T06:43:42.459Z,6.37
2023-04-20T06:45:45.945Z,6.20
2023-04-20T06:47:50.148Z,6.73
2023-04-20T06:49:55.414Z,6.70
2023-04-20T06:52:15.177Z,6.00
2023-04-20T06:54:26.525Z,6.73
2023-04-20T06:56:31.103Z,5.70
2023-04-20T06:59:22.037Z,5.93
2023-04-20T07:01:25.743Z,6.20
2023-04-20T07:03:29.799Z,6.03
2023-04-20T07:05:34.991Z,6.27
2023-04-20T07:07:39.857Z,6.00
2023-04-20T07:09:43.575Z,6.03
2023-04-20T07:11:47.320Z,6.17
2023-04-20T07:13:50.951Z,5.70
2023-04-20T07:15:54.652Z,5.57
2023-04-20T07:17:58.761Z,5.70
2023-04-20T07:20:07.631Z,5.90
2023-04-20T07:22:12.964Z,5.93
2023-04-20T07:24:20.917Z,5.70
2023-04-20T07:26:24.621Z,5.70
2023-04-20T07:28:28.399Z,6.17
2023-04-20T07:30:32.729Z,5.60
2023-04-20T07:32:36.621Z,5.90
2023-04-20T07:34:40.368Z,5.30
2023-04-20T07:36:44.028Z,5.63
2023-04-20T07:38:49.150Z,5.47
2023-04-20T07:40:53.013Z,5.20
2023-04-20T07:42:56.921Z,5.73
2023-04-20T07:45:12.780Z,5.07
2023-04-20T07:47:16.613Z,4.97
2023-04-20T07:49:24.973Z,5.10
2023-04-20T07:51:30.468Z,5.57
2023-04-20T07:53:35.666Z,4.87
2023-04-20T07:55:40.765Z,4.87
2023-04-20T07:57:44.395Z,5.20
2023-04-20T07:59:48.255Z,5.10
2023-04-20T08:01:53.052Z,4.87
2023-04-20T08:03:58.481Z,5.17
2023-04-20T08:06:02.404Z,5.33
2023-04-20T08:08:06.475Z,4.90
2023-04-20T08:10:11.173Z,5.20
2023-04-20T08:12:16.161Z,5.40
2023-04-20T08:14:21.284Z,4.60
2023-04-20T08:16:26.569Z,5.23
2023-04-20T08:18:31.619Z,5.13
2023-04-20T08:20:35.546Z,5.40
2023-04-20T08:22:40.065Z,5.60
2023-04-20T08:24:44.045Z,5.30
2023-04-20T08:26:47.822Z,4.93
2023-04-20T08:28:53.359Z,4.65
2023-04-20T08:30:57.374Z,4.97
2023-04-20T08:33:34.034Z,5.35
2023-04-20T08:35:38.303Z,4.80
2023-04-20T08:37:43.132Z,5.20
2023-04-20T08:39:47.206Z,5.50
2023-04-20T08:41:54.040Z,5.53
2023-04-20T08:43:59.486Z,5.30
2023-04-20T08:46:04.249Z,5.22
2023-04-20T08:48:09.589Z,5.05
2023-04-20T08:50:14.782Z,5.32
2023-04-20T08:52:18.590Z,5.30
2023-04-20T08:54:24.760Z,5.00
2023-04-20T08:56:36.358Z,4.90
2023-04-20T08:58:42.480Z,5.22
2023-04-20T09:00:51.452Z,5.20
2023-04-20T09:02:56.500Z,5.38
2023-04-20T09:05:40.176Z,5.40
2023-04-20T09:07:52.181Z,5.38
2023-04-20T09:09:56.940Z,5.37
2023-04-20T09:12:04.592Z,5.68
2023-04-20T09:14:10.210Z,5.95
2023-04-20T09:16:15.945Z,5.40
2023-04-20T09:18:19.782Z,5.43
2023-04-20T09:20:30.865Z,5.20
2023-04-20T09:22:36.087Z,5.55
2023-04-20T09:24:40.924Z,5.70
2023-04-20T09:26:44.601Z,5.72
2023-04-20T09:28:48.348Z,5.35
2023-04-20T09:30:52.175Z,5.30
2023-04-20T09:33:08.326Z,5.45
2023-04-20T09:35:11.991Z,5.28
2023-04-20T09:37:17.054Z,5.63
2023-04-20T09:39:22.184Z,5.75
2023-04-20T09:41:25.824Z,6.30
2023-04-20T09:43:29.768Z,5.90
2023-04-20T09:45:33.569Z,5.72
2023-04-20T09:47:41.888Z,6.05
2023-04-20T09:49:48.177Z,5.55
2023-04-20T09:51:52.130Z,6.15
2023-04-20T09:53:56.676Z,5.80
2023-04-20T09:56:00.625Z,5.97
2023-04-20T09:58:24.002Z,5.70
2023-04-20T10:00:27.823Z,6.03
2023-04-20T10:02:31.903Z,5.90
2023-04-20T10:04:35.896Z,5.60
2023-04-20T10:06:41.592Z,5.75
2023-04-20T10:08:47.956Z,6.10
2023-04-20T10:10:52.593Z,5.75
2023-04-20T10:12:57.199Z,5.60
2023-04-20T10:15:19.046Z,6.90
2023-04-20T10:17:31.808Z,6.30
2023-04-20T10:19:40.666Z,5.93
2023-04-20T10:21:49.132Z,5.85
2023-04-20T10:23:53.220Z,6.38
2023-04-20T10:25:58.229Z,5.63
2023-04-20T10:28:05.100Z,5.78
2023-04-20T10:30:12.260Z,6.18
2023-04-20T10:32:30.526Z,5.97
2023-04-20T10:34:34.865Z,6.20
2023-04-20T10:36:39.361Z,6.50
2023-04-20T10:38:44.814Z,6.38
2023-04-20T10:40:48.670Z,5.70
2023-04-20T10:42:52.191Z,5.97
2023-04-20T10:44:56.257Z,6.05
2023-04-20T10:47:00.123Z,5.95
2023-04-20T10:49:07.057Z,5.82
2023-04-20T10:51:12.159Z,5.72
2023-04-20T10:53:22.857Z,6.07
2023-04-20T10:55:28.211Z,6.18
2023-04-20T10:57:31.907Z,6.07
2023-04-20T10:59:37.501Z,6.18
2023-04-20T11:01:41.370Z,6.72
2023-04-20T11:03:45.263Z,5.80
2023-04-20T11:05:52.281Z,5.80
2023-04-20T11:07:56.802Z,6.20
2023-04-20T11:10:00.424Z,5.25
2023-04-20T11:12:06.947Z,5.03
2023-04-20T11:14:11.375Z,5.90
2023-04-20T11:16:16.331Z,5.30
2023-04-20T11:18:21.743Z,5.70
2023-04-20T11:20:25.592Z,5.00
2023-04-20T11:22:29.258Z,5.65
2023-04-20T11:24:34.146Z,4.97
2023-04-20T11:26:41.180Z,5.68
2023-04-20T11:28:56.694Z,5.78
2023-04-20T11:31:00.700Z,6.53
2023-04-20T11:33:04.996Z,6.70
2023-04-20T11:35:10.956Z,6.47
2023-04-20T11:37:15.090Z,6.30
2023-04-20T11:39:25.829Z,6.80
2023-04-20T11:41:29.357Z,6.40
2023-04-20T11:43:33.038Z,6.78
2023-04-20T11:45:38.466Z,6.55
2023-04-20T11:47:42.227Z,6.43
2023-04-20T11:49:45.761Z,7.15
2023-04-20T11:51:49.265Z,7.60
2023-04-20T11:53:54.762Z,7.38
2023-04-20T11:56:05.969Z,6.60
2023-04-20T11:58:09.727Z,6.75
2023-04-20T12:00:14.544Z,6.30
2023-04-20T12:02:19.886Z,6.32
2023-04-20T12:04:25.135Z,6.15
2023-04-20T12:06:29.218Z,6.35
2023-04-20T12:08:33.171Z,6.75
2023-04-20T12:10:37.812Z,6.50
2023-04-20T12:12:43.813Z,6.40
2023-04-20T12:14:47.607Z,6.95
2023-04-20T12:16:51.331Z,6.68
2023-04-20T12:18:56.802Z,6.28
2023-04-20T12:21:00.890Z,6.25
2023-04-20T12:23:05.085Z,6.40
2023-04-20T12:25:09.918Z,6.53
2023-04-20T12:27:13.655Z,5.90
2023-04-20T12:29:17.971Z,6.07
2023-04-20T12:31:23.063Z,6.18
2023-04-20T12:33:29.974Z,5.78
2023-04-20T12:35:34.949Z,5.40
2023-04-20T12:37:38.754Z,5.63
2023-04-20T12:39:42.871Z,5.63
2023-04-20T12:41:46.788Z,4.75
2023-04-20T12:43:50.948Z,5.25
2023-04-20T12:45:54.646Z,5.10
2023-04-20T12:48:04.391Z,5.10
2023-04-20T12:50:09.340Z,4.82
2023-04-20T12:52:15.148Z,5.15
2023-04-20T12:54:20.196Z,5.43
2023-04-20T12:56:24.327Z,4.88
2023-04-20T12:58:27.918Z,5.25
2023-04-20T13:00:31.661Z,4.75
2023-04-20T13:02:35.379Z,4.57
2023-04-20T13:04:39.248Z,4.90
2023-04-20T13:06:43.865Z,4.35
2023-04-20T13:08:48.979Z,4.35
2023-04-20T13:10:52.838Z,3.60
2023-04-20T13:12:58.069Z,3.92
2023-04-20T13:15:02.044Z,4.10
2023-04-20T13:17:07.113Z,4.05
2023-04-20T13:19:10.815Z,4.05
2023-04-20T13:21:14.282Z,3.63
2023-04-20T13:23:18.242Z,3.88
2023-04-20T13:25:23.483Z,4.65
2023-04-20T13:27:30.032Z,5.43
2023-04-20T13:29:33.632Z,5.53
2023-04-20T13:31:37.856Z,5.10
2023-04-20T13:33:41.617Z,4.63
2023-04-20T13:35:45.268Z,4.93
2023-04-20T13:37:49.395Z,5.38
2023-04-20T13:39:53.746Z,5.30
2023-04-20T13:41:58.889Z,4.70
2023-04-20T13:44:02.892Z,4.63
2023-04-20T13:46:06.650Z,5.00
2023-04-20T13:48:11.080Z,4.53
2023-04-20T13:50:25.184Z,4.32
2023-04-20T13:52:28.956Z,4.43
2023-04-20T13:54:32.719Z,4.88
2023-04-20T13:56:36.701Z,5.38
2023-04-20T13:59:00.038Z,5.00
2023-04-20T14:01:10.026Z,4.30
2023-04-20T14:03:15.642Z,4.45
2023-04-20T14:05:19.650Z,3.80
2023-04-20T14:07:23.256Z,3.75
2023-04-20T14:09:28.767Z,4.07
2023-04-20T14:11:32.915Z,4.85
2023-04-20T14:13:36.979Z,4.32
2023-04-20T14:15:43.123Z,3.92
2023-04-20T14:17:47.141Z,3.53
2023-04-20T14:19:51.126Z,4.30
2023-04-20T14:21:54.799Z,3.92
2023-04-20T14:23:59.768Z,4.10
2023-04-20T14:26:04.262Z,4.05
2023-04-20T14:28:07.895Z,4.70
2023-04-20T14:30:12.785Z,4.80
2023-04-20T14:32:18.935Z,4.55
2023-04-20T14:34:24.298Z,4.70
2023-04-20T14:36:28.367Z,4.40
2023-04-20T14:38:32.268Z,4.65
2023-04-20T14:40:35.825Z,4.25
2023-04-20T14:42:39.579Z,4.00
2023-04-20T14:44:43.619Z,4.38
2023-04-20T14:46:47.362Z,4.60
2023-04-20T14:48:52.773Z,4.88
2023-04-20T14:50:57.349Z,4.30
2023-04-20T14:53:01.003Z,4.65
2023-04-20T14:55:05.104Z,4.13
2023-04-20T14:57:08.506Z,4.00
2023-04-20T14:59:12.618Z,4.10
2023-04-20T15:01:22.139Z,4.28
2023-04-20T15:03:26.262Z,4.13
2023-04-20T15:05:31.956Z,4.32
2023-04-20T15:07:36.094Z,4.43
2023-04-20T15:09:39.590Z,4.43
2023-04-20T15:11:43.453Z,5.45
2023-04-20T15:13:47.237Z,4.97
2023-04-20T15:15:52.575Z,5.38
2023-04-20T15:17:57.982Z,5.65
2023-04-20T15:20:01.894Z,5.60
2023-04-20T15:22:07.234Z,5.32
2023-04-20T15:24:11.112Z,5.60
2023-04-20T15:26:14.944Z,5.60
2023-04-20T15:28:18.782Z,6.00
2023-04-20T15:30:22.519Z,6.38
2023-04-20T15:32:26.734Z,5.82
2023-04-20T15:34:30.291Z,6.25
2023-04-20T15:36:33.941Z,6.15
2023-04-20T15:38:39.082Z,6.80
2023-04-20T15:40:42.870Z,6.93
2023-04-20T15:42:59.744Z,6.70
2023-04-20T15:45:04.012Z,6.63
2023-04-20T15:47:07.945Z,6.47
2023-04-20T15:49:11.482Z,6.70
2023-04-20T15:51:15.243Z,6.63
2023-04-20T15:53:19.107Z,6.32
2023-04-20T15:55:24.657Z,6.47
2023-04-20T15:57:28.716Z,6.35
2023-04-20T15:59:32.859Z,7.00
2023-04-20T16:01:36.524Z,6.40
2023-04-20T16:03:40.927Z,6.32
2023-04-20T16:06:15.016Z,6.25
2023-04-20T16:08:19.104Z,6.10
2023-04-20T16:10:24.698Z,5.68
2023-04-20T16:12:28.250Z,6.18
2023-04-20T16:14:31.779Z,5.72
2023-04-20T16:16:35.404Z,5.18
2023-04-20T16:18:39.043Z,5.50
2023-04-20T16:20:48.211Z,5.85
2023-04-20T16:22:51.869Z,5.35
2023-04-20T16:24:55.354Z,5.97
2023-04-20T16:27:01.792Z,6.07
2023-04-20T16:29:06.067Z,5.72
2023-04-20T16:31:09.805Z,6.10
2023-04-20T16:33:14.368Z,6.05
2023-04-20T16:35:18.339Z,6.35
2023-04-20T16:37:22.034Z,5.47
2023-04-20T16:39:25.621Z,5.90
2023-04-20T16:41:29.470Z,6.47
2023-04-20T16:43:34.729Z,6.85
2023-04-20T16:45:39.272Z,6.97
2023-04-20T16:47:43.122Z,7.75
2023-04-20T16:49:46.672Z,7.97
2023-04-20T16:51:50.029Z,8.50
2023-04-20T16:53:53.745Z,8.38
2023-04-20T16:55:57.577Z,8.40
2023-04-20T16:58:01.212Z,8.37
2023-04-20T17:00:08.798Z,8.30
2023-04-20T17:02:12.534Z,8.17
2023-04-20T17:04:17.948Z,8.33
2023-04-20T17:06:21.914Z,8.68
2023-04-20T17:08:27.660Z,8.33
2023-04-20T17:10:31.350Z,9.30
2023-04-20T17:12:42.714Z,9.43
2023-04-20T17:14:46.954Z,8.27
2023-04-20T17:16:54.450Z,8.77
2023-04-20T17:18:58.156Z,9.50
2023-04-20T17:21:08.558Z,9.43
2023-04-20T17:23:12.442Z,9.33
2023-04-20T17:25:16.307Z,9.60
2023-04-20T17:27:20.560Z,10.20
2023-04-20T17:29:24.260Z,11.40
2023-04-20T17:31:28.445Z,10.53
2023-04-20T17:33:33.736Z,10.73
2023-04-20T17:35:38.133Z,11.50
2023-04-20T17:37:42.447Z,10.87
2023-04-20T17:39:46.295Z,11.10
2023-04-20T17:41:50.193Z,11.05
2023-04-20T17:43:54.036Z,11.18
2023-04-20T17:45:58.916Z,11.67
2023-04-20T17:48:02.681Z,11.80
2023-04-20T17:50:09.572Z,12.17
2023-04-20T17:52:18.222Z,12.10
2023-04-20T17:54:21.990Z,12.05
2023-04-20T17:56:25.811Z,12.65
2023-04-20T17:58:30.016Z,12.55
2023-04-20T18:00:33.440Z,13.47
2023-04-20T18:02:37.125Z,13.53
2023-04-20T18:04:41.136Z,14.17
2023-04-20T18:06:46.420Z,13.90
2023-04-20T18:08:50.169Z,13.67
2023-04-20T18:10:54.167Z,14.83
2023-04-20T18:13:20.758Z,14.50
2023-04-20T18:15:24.560Z,15.02
2023-04-20T18:17:28.554Z,14.35
2023-04-20T18:19:32.959Z,14.98
2023-04-20T18:21:36.964Z,15.30
2023-04-20T18:23:42.153Z,15.07
2023-04-20T18:25:45.843Z,14.70
2023-04-20T18:28:04.839Z,15.57
2023-04-20T18:30:10.112Z,15.60
2023-04-20T18:32:16.505Z,15.67
2023-04-20T18:34:20.632Z,15.13
2023-04-20T18:36:24.363Z,15.77
2023-04-20T18:38:28.390Z,16.17
2023-04-20T18:40:33.544Z,16.63
2023-04-20T18:42:37.074Z,16.27
2023-04-20T18:44:40.708Z,17.10
2023-04-20T18:46:44.463Z,17.88
2023-04-20T18:48:48.757Z,18.27
2023-04-20T18:50:52.842Z,18.25
2023-04-20T18:57:54.304Z,19.77
2023-04-20T19:00:24.952Z,20.77
2023-04-20T19:02:29.516Z,20.40
2023-04-20T19:07:03.764Z,22.20
2023-04-20T19:11:25.195Z,15.97
2023-04-20T19:13:43.657Z,19.17
2023-04-20T19:15:47.601Z,22.33
2023-04-20T19:17:51.383Z,21.70
2023-04-20T19:22:23.376Z,20.93
2023-04-20T19:24:27.374Z,21.07
2023-04-20T19:26:30.828Z,19.37
2023-04-20T19:28:35.952Z,18.10
2023-04-20T19:30:39.469Z,19.23
2023-04-20T19:32:43.304Z,20.33
2023-04-20T19:34:46.966Z,20.20
2023-04-20T19:37:37.220Z,20.37
2023-04-20T19:39:42.918Z,20.73
2023-04-20T19:41:46.410Z,20.33
2023-04-20T19:43:51.322Z,21.07
2023-04-20T19:46:01.312Z,21.03
2023-04-20T19:48:05.004Z,20.80
2023-04-20T19:50:09.251Z,20.97
2023-04-20T19:52:12.952Z,20.20
2023-04-20T19:54:17.762Z,19.73
2023-04-20T19:56:22.512Z,20.73
2023-04-20T19:58:26.033Z,19.80
2023-04-20T20:00:30.985Z,20.13
2023-04-20T20:02:34.701Z,19.93
2023-04-20T20:04:39.425Z,19.63
2023-04-20T20:06:44.378Z,21.77
2023-04-20T20:08:48.072Z,20.93
2023-04-20T20:10:51.748Z,20.63
2023-04-20T20:16:12.929Z,20.30
2023-04-20T20:18:16.554Z,19.77
2023-04-20T20:20:22.901Z,20.17
2023-04-20T20:29:23.266Z,18.97
2023-04-20T20:31:28.954Z,19.27
2023-04-20T20:33:32.552Z,18.73
2023-04-20T20:35:37.905Z,18.67
2023-04-20T20:37:41.703Z,19.10
2023-04-20T20:39:45.777Z,19.00
2023-04-20T20:41:51.409Z,19.70
2023-04-20T20:44:11.491Z,19.50
2023-04-20T20:46:15.777Z,20.20
2023-04-20T20:48:20.809Z,20.03
2023-04-20T20:50:26.364Z,19.77
2023-04-20T20:52:30.024Z,20.07
2023-04-20T20:54:33.732Z,20.00
2023-04-20T20:56:37.175Z,20.33
2023-04-20T20:58:40.798Z,19.43
2023-04-20T21:00:47.020Z,19.92
2023-04-20T21:02:51.298Z,19.90
2023-04-20T21:04:56.317Z,19.50
2023-04-20T21:06:59.883Z,20.30
2023-04-20T21:09:04.381Z,20.25
2023-04-20T21:11:07.868Z,20.40
2023-04-20T21:13:11.319Z,19.30
2023-04-20T21:15:14.725Z,20.30
2023-04-20T21:18:18.962Z,19.25
2023-04-20T21:20:24.041Z,19.73
2023-04-20T21:22:28.003Z,18.33
2023-04-20T21:24:31.704Z,19.35
2023-04-20T21:26:36.157Z,19.93
2023-04-20T21:28:39.669Z,20.45
2023-04-20T21:30:43.271Z,20.10
2023-04-20T21:32:46.955Z,19.53
2023-04-20T21:35:32.497Z,19.53
2023-04-20T21:37:37.699Z,18.80
2023-04-20T21:39:41.166Z,19.93
2023-04-20T21:41:44.537Z,18.87
2023-04-20T21:44:23.946Z,19.35
2023-04-20T21:46:27.572Z,19.67
2023-04-20T21:48:31.005Z,20.52
2023-04-20T21:50:34.455Z,20.23
2023-04-20T21:52:39.275Z,20.77
2023-04-20T21:54:42.731Z,20.33
2023-04-20T21:56:46.686Z,22.33
2023-04-20T21:58:50.052Z,21.37
2023-04-20T22:01:49.302Z,20.43
2023-04-20T22:03:54.100Z,20.45
2023-04-20T22:05:58.132Z,23.33
2023-04-20T22:08:03.345Z,20.88
2023-04-20T22:10:08.340Z,22.13
2023-04-20T22:12:14.715Z,22.25
2023-04-20T22:14:18.475Z,21.55
2023-04-20T22:16:22.375Z,23.07
2023-04-20T22:18:25.922Z,22.30
2023-04-20T22:20:29.543Z,22.63
2023-04-20T22:22:33.021Z,22.55
2023-04-20T22:24:37.806Z,21.88
2023-04-20T22:26:42.157Z,22.70
2023-04-20T22:28:45.804Z,22.42
2023-04-20T22:30:49.608Z,22.63
2023-04-20T22:32:53.287Z,22.75
2023-04-20T22:34:56.939Z,24.13
2023-04-20T22:37:00.616Z,24.47
2023-04-20T22:42:31.645Z,24.87
2023-04-20T22:44:35.556Z,26.05
2023-04-20T22:46:39.265Z,25.70
2023-04-20T22:48:42.944Z,26.17
2023-04-20T22:50:46.383Z,26.63
2023-04-20T22:52:50.560Z,25.80
2023-04-20T22:54:54.098Z,26.43
2023-04-20T22:57:49.148Z,26.97
2023-04-20T22:59:54.236Z,26.93
2023-04-20T23:01:58.159Z,27.57
2023-04-20T23:04:01.910Z,28.43
2023-04-20T23:06:07.282Z,26.97
2023-04-20T23:08:10.923Z,27.70
2023-04-20T23:10:16.244Z,26.30
2023-04-20T23:12:21.772Z,27.33
2023-04-20T23:14:25.913Z,26.70
2023-04-20T23:16:54.213Z,27.43
2023-04-20T23:18:57.845Z,26.03
2023-04-20T23:21:01.616Z,27.27
2023-04-20T23:23:05.163Z,26.87
2023-04-20T23:25:14.903Z,27.07
2023-04-20T23:27:18.398Z,27.10
2023-04-20T23:29:21.982Z,27.63
2023-04-20T23:31:26.277Z,28.10
2023-04-20T23:33:31.170Z,27.37
2023-04-20T23:35:35.075Z,27.37
2023-04-20T23:37:39.075Z,26.53
2023-04-20T23:39:42.725Z,27.50
2023-04-20T23:41:46.816Z,26.97
2023-04-20T23:43:50.252Z,27.87
2023-04-20T23:45:54.082Z,28.47
2023-04-20T23:47:57.621Z,27.10
2023-04-20T23:50:02.544Z,27.13
2023-04-20T23:52:06.305Z,28.50
2023-04-20T23:54:09.968Z,27.60
2023-04-20T23:56:18.669Z,27.52
2023-04-20T23:58:23.337Z,27.77
